createdAt,value
2022-11-20T00:02:28.907Z,1.23
2022-11-20T00:05:33.978Z,1.25
2022-11-20T00:08:38.251Z,1.22
2022-11-20T00:11:41.160Z,1.24
2022-11-20T00:14:47.513Z,1.20
2022-11-20T00:17:51.774Z,1.30
2022-11-20T00:21:03.027Z,1.20
2022-11-20T00:24:06.243Z,1.26
2022-11-20T00:27:08.939Z,1.31
2022-11-20T00:30:15.034Z,1.31
2022-11-20T00:33:18.089Z,1.25
2022-11-20T00:36:26.389Z,1.24
2022-11-20T00:39:30.466Z,1.26
2022-11-20T00:42:34.380Z,1.25
2022-11-20T00:45:39.658Z,1.24
2022-11-20T00:48:44.339Z,1.22
2022-11-20T00:51:48.177Z,1.28
2022-11-20T00:54:51.180Z,1.23
2022-11-20T00:57:54.786Z,1.27
2022-11-20T01:01:21.699Z,1.31
2022-11-20T01:04:24.938Z,1.25
2022-11-20T01:07:27.789Z,1.29
2022-11-20T01:10:30.438Z,1.30
2022-11-20T01:13:42.353Z,1.25
2022-11-20T01:16:49.343Z,1.23
2022-11-20T01:19:52.127Z,1.23
2022-11-20T01:22:54.847Z,1.21
2022-11-20T01:25:58.416Z,1.16
2022-11-20T01:29:02.422Z,1.13
2022-11-20T01:32:05.949Z,1.13
2022-11-20T01:35:10.652Z,1.10
2022-11-20T01:38:13.367Z,1.13
2022-11-20T01:41:35.375Z,1.09
2022-11-20T01:44:50.726Z,1.08
2022-11-20T01:47:54.802Z,1.03
2022-11-20T01:50:59.342Z,1.05
2022-11-20T01:54:06.296Z,0.99
2022-11-20T01:57:13.002Z,1.01
2022-11-20T02:00:19.108Z,0.97
2022-11-20T02:03:22.050Z,0.96
2022-11-20T02:06:30.732Z,1.00
2022-11-20T02:09:33.678Z,1.07
2022-11-20T02:12:54.947Z,1.04
2022-11-20T02:15:58.363Z,1.07
2022-11-20T02:19:03.608Z,1.09
2022-11-20T02:22:14.070Z,1.07
2022-11-20T02:25:17.196Z,1.11
2022-11-20T02:28:21.448Z,1.08
2022-11-20T02:31:24.822Z,1.11
2022-11-20T02:34:34.402Z,1.13
2022-11-20T02:37:42.106Z,1.13
2022-11-20T02:40:45.029Z,1.10
2022-11-20T02:43:48.354Z,1.17
2022-11-20T02:46:51.686Z,1.13
2022-11-20T02:49:54.351Z,1.13
2022-11-20T02:52:58.435Z,1.12
2022-11-20T02:56:01.317Z,1.19
2022-11-20T02:59:04.433Z,1.15
2022-11-20T03:02:07.078Z,1.20
2022-11-20T03:05:09.835Z,1.18
2022-11-20T03:08:13.499Z,1.15
2022-11-20T03:11:16.484Z,1.16
2022-11-20T03:14:19.005Z,1.21
2022-11-20T03:17:22.167Z,1.24
2022-11-20T03:20:25.178Z,1.22
2022-11-20T03:23:31.393Z,1.25
2022-11-20T03:26:34.484Z,1.25
2022-11-20T03:29:37.714Z,1.27
2022-11-20T03:32:40.569Z,1.23
2022-11-20T03:35:43.725Z,1.29
2022-11-20T03:38:46.410Z,1.30
2022-11-20T03:41:50.642Z,1.34
2022-11-20T03:44:53.277Z,1.29
2022-11-20T03:47:56.879Z,1.30
2022-11-20T03:51:09.132Z,1.37
2022-11-20T03:54:13.502Z,1.28
2022-11-20T03:57:18.434Z,1.31
2022-11-20T04:00:22.170Z,1.42
2022-11-20T04:03:25.204Z,1.51
2022-11-20T04:06:38.780Z,1.58
2022-11-20T04:09:41.601Z,1.61
2022-11-20T04:12:44.473Z,1.62
2022-11-20T04:15:47.259Z,1.52
2022-11-20T04:18:59.114Z,1.62
2022-11-20T04:22:02.237Z,1.62
2022-11-20T04:25:05.463Z,1.69
2022-11-20T04:28:08.623Z,1.75
2022-11-20T04:31:19.740Z,1.79
2022-11-20T04:34:24.507Z,1.84
2022-11-20T04:37:27.188Z,1.86
2022-11-20T04:40:31.315Z,1.84
2022-11-20T04:43:36.354Z,1.90
2022-11-20T04:46:43.468Z,1.83
2022-11-20T04:49:47.397Z,1.76
2022-11-20T04:52:50.580Z,1.81
2022-11-20T04:56:00.950Z,1.78
2022-11-20T04:59:05.477Z,1.84
2022-11-20T05:02:10.403Z,1.73
2022-11-20T05:05:13.373Z,1.65
2022-11-20T05:08:16.797Z,1.71
2022-11-20T05:11:22.010Z,1.73
2022-11-20T05:14:24.828Z,1.62
2022-11-20T05:17:29.552Z,1.65
2022-11-20T05:20:32.527Z,1.54
2022-11-20T05:23:38.089Z,1.61
2022-11-20T05:26:43.375Z,1.70
2022-11-20T05:29:46.381Z,1.74
2022-11-20T05:32:48.920Z,1.68
2022-11-20T05:35:52.012Z,1.74
2022-11-20T05:39:00.948Z,1.66
2022-11-20T05:42:23.231Z,1.75
2022-11-20T05:45:26.983Z,1.79
2022-11-20T05:48:31.600Z,1.80
2022-11-20T05:51:35.194Z,1.82
2022-11-20T05:54:45.777Z,1.84
2022-11-20T05:57:48.751Z,1.83
2022-11-20T06:00:53.501Z,1.82
2022-11-20T06:03:56.652Z,1.75
2022-11-20T06:07:01.407Z,1.78
2022-11-20T06:10:06.088Z,1.86
2022-11-20T06:13:10.226Z,1.93
2022-11-20T06:16:18.408Z,1.98
2022-11-20T06:19:23.974Z,2.00
2022-11-20T06:22:32.281Z,2.03
2022-11-20T06:25:39.213Z,2.03
2022-11-20T06:28:43.518Z,2.07
2022-11-20T06:31:46.546Z,2.08
2022-11-20T06:34:50.694Z,2.14
2022-11-20T06:37:53.806Z,2.18
2022-11-20T06:41:00.328Z,2.19
2022-11-20T06:44:15.659Z,2.25
2022-11-20T06:47:23.519Z,2.30
2022-11-20T06:50:26.633Z,2.31
2022-11-20T06:53:29.968Z,2.32
2022-11-20T06:56:33.491Z,2.36
2022-11-20T06:59:36.992Z,2.41
2022-11-20T07:02:47.328Z,2.47
2022-11-20T07:06:06.214Z,2.54
2022-11-20T07:09:12.871Z,2.60
2022-11-20T07:12:33.389Z,2.64
2022-11-20T07:15:38.304Z,2.69
2022-11-20T07:18:48.836Z,2.70
2022-11-20T07:21:57.127Z,2.75
2022-11-20T07:25:02.322Z,2.79
2022-11-20T07:28:16.521Z,2.84
2022-11-20T07:31:21.582Z,2.93
2022-11-20T07:34:38.698Z,2.96
2022-11-20T07:37:49.689Z,3.00
2022-11-20T07:40:56.828Z,3.06
2022-11-20T07:44:08.269Z,3.08
2022-11-20T07:47:13.477Z,3.15
2022-11-20T07:50:19.566Z,3.19
2022-11-20T07:53:28.378Z,3.22
2022-11-20T07:56:50.178Z,3.25
2022-11-20T08:00:06.175Z,3.27
2022-11-20T08:03:24.902Z,3.34
2022-11-20T08:06:33.298Z,3.41
2022-11-20T08:09:37.522Z,3.49
2022-11-20T08:13:10.353Z,3.58
2022-11-20T08:16:18.260Z,3.63
2022-11-20T08:19:34.700Z,3.69
2022-11-20T08:22:51.745Z,3.78
2022-11-20T08:26:05.286Z,3.90
2022-11-20T08:29:12.374Z,3.99
2022-11-20T08:32:19.751Z,4.17
2022-11-20T08:35:26.631Z,4.32
2022-11-20T08:38:35.498Z,4.30
2022-11-20T08:41:47.666Z,4.48
2022-11-20T08:44:57.101Z,4.64
2022-11-20T08:48:03.904Z,4.58
2022-11-20T08:51:09.706Z,4.65
2022-11-20T08:54:16.516Z,4.54
2022-11-20T08:57:23.303Z,4.37
2022-11-20T09:00:28.613Z,4.41
2022-11-20T09:03:38.741Z,4.48
2022-11-20T09:06:56.233Z,4.61
2022-11-20T09:13:31.259Z,4.77
2022-11-20T09:16:34.906Z,4.79
2022-11-20T09:19:52.203Z,4.77
2022-11-20T09:22:57.301Z,4.78
2022-11-20T09:26:16.594Z,4.77
2022-11-20T09:29:34.768Z,4.78
2022-11-20T09:32:48.397Z,4.77
2022-11-20T09:35:53.740Z,4.73
2022-11-20T09:38:58.987Z,4.76
2022-11-20T09:46:06.649Z,4.80
2022-11-20T09:49:37.853Z,4.86
2022-11-20T09:53:07.342Z,4.88
2022-11-20T09:56:12.333Z,4.88
2022-11-20T09:59:38.032Z,4.96
2022-11-20T10:03:03.478Z,5.01
2022-11-20T10:06:21.170Z,5.08
2022-11-20T10:09:33.618Z,5.16
2022-11-20T10:13:25.313Z,5.29
2022-11-20T10:16:41.174Z,5.50
2022-11-20T10:20:16.259Z,5.76
2022-11-20T10:23:53.241Z,5.91
2022-11-20T10:27:04.245Z,5.98
2022-11-20T10:30:27.401Z,6.01
2022-11-20T10:34:05.413Z,6.08
2022-11-20T10:37:33.445Z,6.17
2022-11-20T10:40:46.676Z,6.22
2022-11-20T10:44:23.485Z,6.25
2022-11-20T10:47:33.340Z,6.30
2022-11-20T10:50:42.359Z,6.34
2022-11-20T10:53:54.555Z,6.36
2022-11-20T10:57:17.476Z,6.34
2022-11-20T11:00:25.293Z,6.41
2022-11-20T11:03:38.295Z,6.31
2022-11-20T11:06:52.391Z,6.28
2022-11-20T11:10:02.573Z,6.33
2022-11-20T11:13:33.244Z,6.34
2022-11-20T11:16:37.009Z,6.33
2022-11-20T11:19:41.215Z,6.40
2022-11-20T11:22:59.284Z,6.40
2022-11-20T11:26:07.601Z,6.43
2022-11-20T11:29:19.645Z,6.42
2022-11-20T11:32:25.238Z,6.41
2022-11-20T11:35:30.706Z,6.38
2022-11-20T11:38:46.277Z,6.40
2022-11-20T11:41:57.184Z,6.50
2022-11-20T11:45:18.394Z,6.56
2022-11-20T11:48:25.657Z,6.64
2022-11-20T11:51:44.153Z,6.82
2022-11-20T11:55:00.918Z,6.85
2022-11-20T11:58:54.195Z,6.87
2022-11-20T12:02:23.618Z,6.86
2022-11-20T12:05:41.287Z,6.82
2022-11-20T12:08:58.638Z,6.79
2022-11-20T12:12:18.686Z,6.77
2022-11-20T12:15:33.404Z,6.74
2022-11-20T12:18:41.206Z,6.70
2022-11-20T12:22:17.441Z,6.65
2022-11-20T12:25:33.517Z,6.55
2022-11-20T12:29:14.239Z,6.56
2022-11-20T12:32:29.293Z,6.51
2022-11-20T12:35:37.958Z,6.51
2022-11-20T12:38:54.475Z,6.50
2022-11-20T12:42:42.248Z,6.51
2022-11-20T12:45:55.311Z,6.53
2022-11-20T12:49:32.390Z,6.50
2022-11-20T12:52:54.171Z,6.45
2022-11-20T12:56:29.221Z,6.45
2022-11-20T13:00:03.300Z,6.43
2022-11-20T13:03:34.290Z,6.46
2022-11-20T13:06:39.475Z,6.43
2022-11-20T13:09:49.570Z,6.42
2022-11-20T13:13:18.955Z,6.44
2022-11-20T13:16:35.797Z,6.40
2022-11-20T13:19:41.247Z,6.35
2022-11-20T13:22:55.862Z,6.30
2022-11-20T13:26:22.152Z,6.26
2022-11-20T13:29:34.292Z,6.22
2022-11-20T13:32:50.438Z,6.22
2022-11-20T13:36:03.715Z,6.22
2022-11-20T13:39:13.219Z,6.19
2022-11-20T13:42:17.521Z,6.14
2022-11-20T13:45:38.960Z,6.11
2022-11-20T13:48:56.178Z,6.07
2022-11-20T13:52:11.300Z,6.06
2022-11-20T13:55:37.566Z,5.99
2022-11-20T13:58:51.613Z,5.96
2022-11-20T14:02:00.283Z,5.89
2022-11-20T14:05:07.547Z,5.87
2022-11-20T14:08:32.249Z,5.82
2022-11-20T14:11:48.291Z,5.74
2022-11-20T14:14:54.447Z,5.72
2022-11-20T14:18:02.296Z,5.69
2022-11-20T14:21:23.287Z,5.63
2022-11-20T14:24:36.533Z,5.61
2022-11-20T14:27:45.142Z,5.60
2022-11-20T14:30:51.553Z,5.56
2022-11-20T14:33:56.936Z,5.53
2022-11-20T14:37:16.500Z,5.49
2022-11-20T14:40:28.277Z,5.47
2022-11-20T14:43:37.551Z,5.45
2022-11-20T14:46:48.107Z,5.44
2022-11-20T14:49:57.241Z,5.41
2022-11-20T14:53:04.858Z,5.37
2022-11-20T14:56:12.503Z,5.35
2022-11-20T14:59:28.414Z,5.32
2022-11-20T15:02:45.519Z,5.28
2022-11-20T15:05:55.308Z,5.25
2022-11-20T15:09:02.818Z,5.19
2022-11-20T15:12:13.132Z,5.16
2022-11-20T15:15:28.199Z,5.11
2022-11-20T15:18:42.630Z,5.00
2022-11-20T15:22:03.147Z,4.97
2022-11-20T15:25:18.604Z,4.91
2022-11-20T15:28:33.543Z,4.86
2022-11-20T15:31:53.258Z,4.77
2022-11-20T15:34:57.268Z,4.65
2022-11-20T15:38:15.371Z,4.47
2022-11-20T15:41:30.348Z,4.42
2022-11-20T15:44:35.597Z,4.26
2022-11-20T15:47:40.784Z,4.21
2022-11-20T15:50:55.533Z,4.10
2022-11-20T15:54:23.561Z,3.97
2022-11-20T15:57:32.249Z,3.88
2022-11-20T16:00:37.322Z,3.78
2022-11-20T16:03:42.665Z,3.61
2022-11-20T16:06:54.284Z,3.53
2022-11-20T16:10:00.589Z,3.39
2022-11-20T16:13:38.177Z,3.34
2022-11-20T16:16:48.336Z,3.25
2022-11-20T16:19:56.199Z,3.14
2022-11-20T16:23:00.519Z,3.08
2022-11-20T16:26:19.238Z,2.99
2022-11-20T16:29:31.250Z,2.87
2022-11-20T16:32:40.232Z,2.80
2022-11-20T16:35:48.475Z,2.78
2022-11-20T16:39:01.301Z,2.81
2022-11-20T16:42:17.229Z,2.81
2022-11-20T16:45:26.962Z,2.81
2022-11-20T16:48:44.274Z,2.75
2022-11-20T16:51:52.343Z,2.68
2022-11-20T16:55:01.177Z,2.71
2022-11-20T16:58:06.458Z,2.65
2022-11-20T17:01:22.239Z,2.66
2022-11-20T17:04:39.105Z,2.64
2022-11-20T17:07:51.440Z,2.58
2022-11-20T17:11:07.786Z,2.54
2022-11-20T17:14:14.290Z,2.53
2022-11-20T17:17:24.272Z,2.53
2022-11-20T17:20:37.237Z,2.50
2022-11-20T17:23:50.203Z,2.48
2022-11-20T17:26:56.442Z,2.41
2022-11-20T17:30:06.268Z,2.33
2022-11-20T17:33:17.137Z,2.24
2022-11-20T17:36:31.132Z,2.18
2022-11-20T17:39:48.036Z,2.19
2022-11-20T17:42:52.548Z,2.23
2022-11-20T17:46:00.192Z,2.18
2022-11-20T17:49:06.963Z,2.16
2022-11-20T17:52:19.263Z,2.11
2022-11-20T17:55:55.602Z,2.03
2022-11-20T17:59:08.570Z,1.97
2022-11-20T18:02:27.270Z,1.87
2022-11-20T18:05:32.977Z,1.79
2022-11-20T18:08:38.260Z,1.73
2022-11-20T18:11:50.182Z,1.66
2022-11-20T18:15:05.516Z,1.57
2022-11-20T18:18:14.826Z,1.58
2022-11-20T18:21:27.651Z,1.52
2022-11-20T18:24:35.988Z,1.53
2022-11-20T18:27:55.282Z,1.55
2022-11-20T18:31:15.334Z,1.55
2022-11-20T18:34:30.213Z,1.54
2022-11-20T18:37:44.274Z,1.53
2022-11-20T18:40:48.448Z,1.50
2022-11-20T18:44:15.231Z,1.48
2022-11-20T18:47:28.806Z,1.45
2022-11-20T18:50:34.207Z,1.42
2022-11-20T18:53:47.657Z,1.39
2022-11-20T18:56:52.030Z,1.34
2022-11-20T19:00:08.413Z,1.24
2022-11-20T19:03:24.288Z,1.23
2022-11-20T19:06:33.250Z,1.22
2022-11-20T19:09:45.072Z,1.16
2022-11-20T19:12:49.610Z,1.14
2022-11-20T19:16:06.716Z,1.17
2022-11-20T19:19:11.326Z,1.16
2022-11-20T19:22:25.176Z,1.10
2022-11-20T19:25:38.432Z,1.11
2022-11-20T19:28:44.232Z,1.14
2022-11-20T19:31:56.158Z,1.17
2022-11-20T19:35:25.226Z,1.20
2022-11-20T19:38:32.163Z,1.25
2022-11-20T19:41:39.380Z,1.35
2022-11-20T19:44:43.740Z,1.41
2022-11-20T19:48:09.866Z,1.45
2022-11-20T19:51:24.402Z,1.48
2022-11-20T19:54:33.427Z,1.51
2022-11-20T19:57:46.170Z,1.51
2022-11-20T20:00:52.457Z,1.51
2022-11-20T20:04:06.198Z,1.44
2022-11-20T20:07:09.997Z,1.45
2022-11-20T20:10:27.650Z,1.46
2022-11-20T20:13:32.753Z,1.43
2022-11-20T20:16:38.241Z,1.42
2022-11-20T20:19:43.264Z,1.38
2022-11-20T20:22:48.643Z,1.32
2022-11-20T20:26:08.337Z,1.31
2022-11-20T20:29:23.636Z,1.33
2022-11-20T20:32:33.213Z,1.33
2022-11-20T20:35:42.467Z,1.33
2022-11-20T20:38:57.173Z,1.32
2022-11-20T20:42:02.875Z,1.32
2022-11-20T20:45:11.327Z,1.30
2022-11-20T20:48:24.224Z,1.29
2022-11-20T20:51:40.189Z,1.27
2022-11-20T20:54:46.191Z,1.26
2022-11-20T20:57:54.161Z,1.20
2022-11-20T21:01:15.352Z,1.13
2022-11-20T21:04:25.240Z,1.00
2022-11-20T21:07:31.082Z,0.93
2022-11-20T21:10:34.967Z,0.82
2022-11-20T21:13:49.278Z,0.75
2022-11-20T21:17:01.167Z,0.75
2022-11-20T21:20:30.313Z,0.75
2022-11-20T21:23:36.410Z,0.77
2022-11-20T21:26:42.028Z,0.77
2022-11-20T21:29:50.150Z,0.71
2022-11-20T21:32:55.991Z,0.67
2022-11-20T21:36:00.883Z,0.64
2022-11-20T21:39:05.090Z,0.58
2022-11-20T21:42:08.360Z,0.53
2022-11-20T21:45:14.127Z,0.53
2022-11-20T21:48:23.148Z,0.53
2022-11-20T21:51:29.894Z,0.54
2022-11-20T21:54:35.873Z,0.59
2022-11-20T21:57:40.677Z,0.68
2022-11-20T22:00:44.610Z,0.71
2022-11-20T22:03:53.470Z,0.68
2022-11-20T22:06:56.511Z,0.71
2022-11-20T22:10:01.366Z,0.73
2022-11-20T22:13:34.782Z,0.74
2022-11-20T22:16:39.026Z,0.70
2022-11-20T22:19:52.188Z,0.69
2022-11-20T22:22:55.150Z,0.68
2022-11-20T22:26:05.943Z,0.58
2022-11-20T22:29:17.284Z,0.44
2022-11-20T22:32:23.172Z,0.38
2022-11-20T22:35:27.058Z,0.30
2022-11-20T22:38:39.721Z,0.22
2022-11-20T22:41:43.623Z,0.24
2022-11-20T22:44:46.098Z,0.18
2022-11-20T22:47:49.959Z,0.20
2022-11-20T22:50:55.149Z,0.17
2022-11-20T22:53:58.730Z,0.04
2022-11-20T22:57:04.770Z,0.04
2022-11-20T23:00:11.156Z,0.01
2022-11-20T23:03:14.812Z,-0.06
2022-11-20T23:06:20.019Z,-0.10
2022-11-20T23:09:23.431Z,-0.16
2022-11-20T23:12:26.296Z,-0.25
2022-11-20T23:15:29.224Z,-0.24
2022-11-20T23:18:33.056Z,-0.30
2022-11-20T23:21:38.116Z,-0.30
2022-11-20T23:24:41.302Z,-0.21
2022-11-20T23:27:44.148Z,-0.16
2022-11-20T23:30:48.330Z,-0.13
2022-11-20T23:33:53.252Z,-0.11
2022-11-20T23:36:57.840Z,-0.13
2022-11-20T23:40:00.955Z,-0.22
2022-11-20T23:43:17.330Z,-0.23
2022-11-20T23:46:20.357Z,-0.27
2022-11-20T23:49:23.285Z,-0.35
2022-11-20T23:52:26.938Z,-0.36
2022-11-20T23:55:29.890Z,-0.34
2022-11-20T23:58:35.945Z,-0.33
